Time;durP1;ratioP1;P1;durP2;ratioP2;P2;SDS_P1;SDS_P2;PMS_P1;PMS_P2;Temp;Humidity;BMP_temperature;BMP_pressure;BME280_temperature;BME280_humidity;BME280_pressure;Samples;Min_cycle;Max_cycle;Signal;HPM_P1;HPM_P2
2021/04/14 00:01:10;;;;;;;;;;;;;;;7.90;77.05;100414.77;1651886;85;21971;-73
2021/04/14 00:03:37;;;;;;;;;;;;;;;7.92;76.94;100413.37;1676083;85;20833;-73
2021/04/14 00:06:05;;;;;;;;;;;;;;;7.93;76.85;100416.36;1676186;85;20262;-72
2021/04/14 00:08:33;;;;;;;;;;;;;;;7.91;76.79;100413.84;1660511;85;21245;-72
2021/04/14 00:11:00;;;;;;;;;;;;;;;7.89;76.75;100411.77;1653332;85;20264;-74
2021/04/14 00:13:33;;;;;;;;;;;;;;;7.87;76.76;100409.72;1669365;85;20364;-72
2021/04/14 00:16:00;;;;;;;;;;;;;;;7.84;76.77;100411.25;1665190;85;20460;-72
2021/04/14 00:18:29;;;;;;;;;;;;;;;7.82;76.81;100413.15;1668651;85;20246;-72
2021/04/14 00:20:57;;;;;;;;;;;;;;;7.78;76.81;100406.39;1653570;85;20334;-72
2021/04/14 00:23:24;;;;;;;;;;;;;;;7.78;76.83;100408.18;1675228;85;20414;-73
2021/04/14 00:25:53;;;;;;;;;;;;;;;7.77;76.83;100409.13;1656339;85;20348;-73
2021/04/14 00:28:22;;;;;;;;;;;;;;;7.77;76.82;100411.28;1664409;85;21299;-72
2021/04/14 00:30:50;;;;;;;;;;;;;;;7.73;76.79;100409.82;1658064;85;20529;-73
2021/04/14 00:33:17;;;;;;;;;;;;;;;7.68;76.80;100406.17;1668864;85;20243;-72
2021/04/14 00:35:44;;;;;;;;;;;;;;;7.65;76.78;100406.38;1668075;85;20435;-72
2021/04/14 00:38:13;;;;;;;;;;;;;;;7.62;76.78;100410.51;1672143;85;21982;-72
2021/04/14 00:40:43;;;;;;;;;;;;;;;7.60;76.76;100410.25;1647830;87;21296;-72
2021/04/14 00:43:14;;;;;;;;;;;;;;;7.58;76.68;100405.58;1656412;85;20303;-73
2021/04/14 00:45:42;;;;;;;;;;;;;;;7.55;76.63;100400.53;1670829;85;21095;-73
2021/04/14 00:48:09;;;;;;;;;;;;;;;7.49;76.60;100398.30;1648007;85;20279;-73
2021/04/14 00:50:37;;;;;;;;;;;;;;;7.43;76.59;100393.83;1653590;85;22101;-73
2021/04/14 00:53:05;;;;;;;;;;;;;;;7.40;76.56;100395.33;1652256;84;20820;-74
2021/04/14 00:55:32;;;;;;;;;;;;;;;7.37;76.55;100392.07;1674742;85;20239;-72
2021/04/14 00:57:59;;;;;;;;;;;;;;;7.35;76.58;100396.11;1656047;85;20259;-73
2021/04/14 01:00:30;;;;;;;;;;;;;;;7.32;76.54;100388.41;1650587;85;20242;-72
2021/04/14 01:02:57;;;;;;;;;;;;;;;7.29;76.55;100386.00;1647170;86;22530;-73
2021/04/14 01:05:26;;;;;;;;;;;;;;;7.27;76.51;100377.85;1648305;85;20468;-72
2021/04/14 01:07:53;;;;;;;;;;;;;;;7.25;76.50;100377.96;1650560;85;20254;-73
2021/04/14 01:10:23;;;;;;;;;;;;;;;7.20;76.49;100386.59;1657374;85;20267;-74
2021/04/14 01:12:53;;;;;;;;;;;;;;;7.17;76.50;100382.39;1597400;87;20232;-73
2021/04/14 01:15:24;;;;;;;;;;;;;;;7.16;76.50;100387.28;1626891;88;22943;-72
2021/04/14 01:17:52;;;;;;;;;;;;;;;7.14;76.45;100386.55;1624651;88;20436;-72
2021/04/14 01:20:21;;;;;;;;;;;;;;;7.14;76.40;100389.17;1634521;86;20299;-73
2021/04/14 01:22:48;;;;;;;;;;;;;;;7.15;76.36;100392.64;1612332;88;20480;-74
2021/04/14 01:25:21;;;;;;;;;;;;;;;7.14;76.29;100397.48;1630901;88;20272;-73
2021/04/14 01:27:48;;;;;;;;;;;;;;;7.14;76.21;100396.17;1615584;88;21925;-73
2021/04/14 01:30:22;;;;;;;;;;;;;;;7.08;76.08;100405.31;1621983;86;20552;-73
2021/04/14 01:32:49;;;;;;;;;;;;;;;7.04;75.95;100400.34;1625769;88;20293;-73
2021/04/14 01:35:16;;;;;;;;;;;;;;;6.98;75.78;100402.91;1617956;88;20318;-74
2021/04/14 01:37:44;;;;;;;;;;;;;;;6.88;75.63;100407.06;1631822;88;20243;-73
2021/04/14 01:40:11;;;;;;;;;;;;;;;6.82;75.50;100404.81;1619261;88;22151;-73
2021/04/14 01:42:38;;;;;;;;;;;;;;;6.74;75.41;100408.39;1615181;87;20519;-74
2021/04/14 01:45:08;;;;;;;;;;;;;;;6.63;75.33;100406.91;1615302;89;20239;-73
2021/04/14 01:47:35;;;;;;;;;;;;;;;6.53;75.42;100403.55;1630366;87;20490;-73
2021/04/14 01:50:04;;;;;;;;;;;;;;;6.48;75.46;100400.84;1635460;86;20252;-72
2021/04/14 01:52:32;;;;;;;;;;;;;;;6.45;75.60;100403.64;1629562;87;22064;-74
2021/04/14 01:55:00;;;;;;;;;;;;;;;6.38;75.57;100403.67;1636416;86;21111;-73
2021/04/14 01:57:28;;;;;;;;;;;;;;;6.27;75.76;100395.98;1638278;86;20263;-73
2021/04/14 01:59:55;;;;;;;;;;;;;;;6.20;75.90;100395.98;1639882;87;20546;-73
2021/04/14 02:02:23;;;;;;;;;;;;;;;6.18;76.04;100391.77;1629440;87;20279;-73
2021/04/14 02:04:51;;;;;;;;;;;;;;;6.16;76.13;100390.53;1640033;86;23416;-73
2021/04/14 02:07:18;;;;;;;;;;;;;;;6.17;76.28;100392.21;1622831;87;20261;-73
2021/04/14 02:09:45;;;;;;;;;;;;;;;6.17;76.42;100393.52;1625296;87;20235;-73
2021/04/14 02:12:14;;;;;;;;;;;;;;;6.18;76.60;100399.64;1615301;87;21427;-73
2021/04/14 02:14:41;;;;;;;;;;;;;;;6.18;76.67;100396.55;1643319;87;20225;-73
2021/04/14 02:17:09;;;;;;;;;;;;;;;6.16;76.72;100395.77;1630383;87;21768;-73
2021/04/14 02:19:36;;;;;;;;;;;;;;;6.13;76.76;100392.51;1642815;87;20340;-73
2021/04/14 02:22:04;;;;;;;;;;;;;;;6.06;76.67;100386.78;1651292;85;20443;-73
2021/04/14 02:24:31;;;;;;;;;;;;;;;5.94;76.50;100381.81;1660213;85;20767;-72
2021/04/14 02:26:58;;;;;;;;;;;;;;;5.84;76.41;100388.98;1656117;85;20262;-73
2021/04/14 02:29:26;;;;;;;;;;;;;;;5.79;76.41;100394.95;1659748;85;21925;-73
2021/04/14 02:31:53;;;;;;;;;;;;;;;5.73;76.47;100398.33;1653086;85;20294;-74
2021/04/14 02:34:21;;;;;;;;;;;;;;;5.70;76.50;100399.83;1660863;85;20298;-73
2021/04/14 02:36:48;;;;;;;;;;;;;;;5.66;76.56;100395.67;1651251;85;20320;-73
2021/04/14 02:39:16;;;;;;;;;;;;;;;5.66;76.67;100390.44;1653490;85;20267;-73
2021/04/14 02:41:44;;;;;;;;;;;;;;;5.66;76.82;100390.44;1663295;85;21917;-73
2021/04/14 02:44:11;;;;;;;;;;;;;;;5.65;76.93;100382.20;1656299;85;20461;-73
2021/04/14 02:46:38;;;;;;;;;;;;;;;5.66;76.99;100373.41;1648178;87;20249;-73
2021/04/14 02:49:06;;;;;;;;;;;;;;;5.68;77.00;100375.93;1647500;87;20330;-73
2021/04/14 02:51:35;;;;;;;;;;;;;;;5.68;77.04;100379.86;1663333;85;20433;-73
2021/04/14 02:54:02;;;;;;;;;;;;;;;5.67;77.07;100375.09;1659984;84;21855;-73
2021/04/14 02:56:29;;;;;;;;;;;;;;;5.67;77.14;100375.55;1654917;85;21131;-72
2021/04/14 02:58:57;;;;;;;;;;;;;;;5.68;77.31;100370.22;1653256;85;20533;-73
2021/04/14 03:01:25;;;;;;;;;;;;;;;5.70;77.39;100366.23;1648927;85;20257;-73
2021/04/14 03:03:53;;;;;;;;;;;;;;;5.68;77.46;100370.22;1647924;87;20298;-73
2021/04/14 03:06:20;;;;;;;;;;;;;;;5.67;77.55;100359.36;1646686;87;22090;-73
2021/04/14 03:08:47;;;;;;;;;;;;;;;5.66;77.66;100366.02;1657369;85;21123;-74
2021/04/14 03:11:14;;;;;;;;;;;;;;;5.65;77.72;100366.48;1662483;85;20229;-73
2021/04/14 03:13:43;;;;;;;;;;;;;;;5.63;77.77;100369.66;1672761;85;20243;-73
2021/04/14 03:16:10;;;;;;;;;;;;;;;5.62;77.82;100370.60;1647653;85;20576;-73
2021/04/14 03:18:37;;;;;;;;;;;;;;;5.61;77.89;100372.84;1637661;85;21925;-73
2021/04/14 03:21:05;;;;;;;;;;;;;;;5.63;77.95;100374.06;1666618;84;20407;-73
2021/04/14 03:23:32;;;;;;;;;;;;;;;5.64;78.04;100371.81;1672675;85;20245;-73
2021/04/14 03:26:00;;;;;;;;;;;;;;;5.65;78.17;100376.96;1652409;85;20479;-73
2021/04/14 03:28:27;;;;;;;;;;;;;;;5.67;78.31;100375.09;1674870;85;20227;-73
2021/04/14 03:30:54;;;;;;;;;;;;;;;5.70;78.43;100372.78;1675663;85;23094;-73
2021/04/14 03:33:21;;;;;;;;;;;;;;;5.73;78.50;100371.27;1663256;85;20751;-73
2021/04/14 03:35:48;;;;;;;;;;;;;;;5.75;78.51;100369.40;1671423;85;20135;-73
2021/04/14 03:38:16;;;;;;;;;;;;;;;5.78;78.48;100374.92;1675916;85;20457;-73
2021/04/14 03:40:43;;;;;;;;;;;;;;;5.78;78.43;100372.30;1673812;85;20222;-73
2021/04/14 03:43:10;;;;;;;;;;;;;;;5.77;78.40;100370.61;1663892;85;21227;-73
2021/04/14 03:45:44;;;;;;;;;;;;;;;5.77;78.34;100369.30;1648658;85;20697;-73
2021/04/14 03:48:07;;;;;;;;;;;;;;;5.74;78.34;100359.38;1653199;85;20443;-75
2021/04/14 03:50:34;;;;;;;;;;;;;;;5.73;78.30;100366.88;1651749;85;20377;-75
2021/04/14 03:53:13;;;;;;;;;;;;;;;5.73;78.32;100365.56;1661489;85;20309;-72
2021/04/14 03:55:40;;;;;;;;;;;;;;;5.74;78.31;100362.00;1650050;85;21924;-72
2021/04/14 03:58:07;;;;;;;;;;;;;;;5.76;78.29;100368.46;1647987;85;20381;-72
2021/04/14 04:00:34;;;;;;;;;;;;;;;5.74;78.31;100369.87;1644298;87;20250;-72
2021/04/14 04:03:03;;;;;;;;;;;;;;;5.75;78.40;100378.57;1649980;85;20319;-72
2021/04/14 04:05:31;;;;;;;;;;;;;;;5.76;78.48;100375.02;1660360;84;20247;-70
2021/04/14 04:07:59;;;;;;;;;;;;;;;5.78;78.51;100367.89;1671592;85;21764;-71
2021/04/14 04:10:26;;;;;;;;;;;;;;;5.83;78.54;100367.64;1653695;85;20254;-73
2021/04/14 04:12:56;;;;;;;;;;;;;;;5.87;78.48;100369.13;1648083;85;20517;-71
2021/04/14 04:15:22;;;;;;;;;;;;;;;5.91;78.41;100372.83;1649266;85;20545;-71
2021/04/14 04:17:49;;;;;;;;;;;;;;;5.97;78.30;100368.98;1648027;85;20285;-70
2021/04/14 04:20:17;;;;;;;;;;;;;;;6.04;78.16;100371.61;1647328;87;21925;-69
2021/04/14 04:22:45;;;;;;;;;;;;;;;6.12;77.95;100372.00;1647961;87;20246;-69
2021/04/14 04:25:14;;;;;;;;;;;;;;;6.22;77.61;100374.43;1648367;85;20432;-70
2021/04/14 04:27:42;;;;;;;;;;;;;;;6.30;77.21;100373.49;1641881;85;20267;-69
2021/04/14 04:30:11;;;;;;;;;;;;;;;6.42;76.86;100381.54;1608833;87;20287;-70
2021/04/14 04:32:39;;;;;;;;;;;;;;;6.49;76.67;100384.16;1609278;88;22112;-71
2021/04/14 04:35:07;;;;;;;;;;;;;;;6.55;76.40;100386.39;1609828;88;21221;-74
2021/04/14 04:37:35;;;;;;;;;;;;;;;6.58;76.04;100397.55;1624985;87;20228;-73
2021/04/14 04:40:03;;;;;;;;;;;;;;;6.63;75.68;100397.25;1605797;89;21223;-72
2021/04/14 04:42:30;;;;;;;;;;;;;;;6.68;75.44;100391.27;1615693;88;20286;-72
2021/04/14 04:44:58;;;;;;;;;;;;;;;6.72;75.17;100403.71;1628539;86;22500;-75
2021/04/14 04:47:25;;;;;;;;;;;;;;;6.76;75.06;100398.66;1615506;88;20398;-74
2021/04/14 04:49:54;;;;;;;;;;;;;;;6.79;74.83;100398.45;1629111;86;20510;-74
2021/04/14 04:52:21;;;;;;;;;;;;;;;6.82;74.72;100397.78;1608207;89;21295;-74
2021/04/14 04:54:48;;;;;;;;;;;;;;;6.88;74.60;100403.13;1609262;88;20224;-74
2021/04/14 04:57:15;;;;;;;;;;;;;;;6.90;74.41;100401.23;1607625;88;22089;-74
2021/04/14 04:59:42;;;;;;;;;;;;;;;6.94;74.26;100397.46;1606875;89;20843;-74
2021/04/14 05:02:11;;;;;;;;;;;;;;;7.00;74.17;100398.86;1607178;88;20280;-74
2021/04/14 05:04:38;;;;;;;;;;;;;;;7.06;74.34;100397.17;1606114;88;21733;-74
2021/04/14 05:07:05;;;;;;;;;;;;;;;7.10;74.51;100398.64;1607474;89;20891;-74
2021/04/14 05:09:32;;;;;;;;;;;;;;;7.10;74.67;100399.95;1606975;89;22997;-74
2021/04/14 05:12:00;;;;;;;;;;;;;;;7.10;74.87;100407.84;1606673;86;20688;-75
2021/04/14 05:14:29;;;;;;;;;;;;;;;7.10;75.02;100406.05;1607792;88;20260;-74
2021/04/14 05:16:57;;;;;;;;;;;;;;;7.12;75.03;100405.47;1605857;88;20394;-75
2021/04/14 05:19:25;;;;;;;;;;;;;;;7.11;74.94;100401.17;1652431;85;20259;-76
2021/04/14 05:21:53;;;;;;;;;;;;;;;7.12;74.94;100409.89;1633933;86;22087;-76
2021/04/14 05:24:21;;;;;;;;;;;;;;;7.14;74.79;100406.68;1656780;85;20414;-76
2021/04/14 05:26:49;;;;;;;;;;;;;;;7.18;74.64;100405.56;1650882;85;20247;-74
2021/04/14 05:29:16;;;;;;;;;;;;;;;7.19;74.56;100396.73;1648024;85;20881;-74
2021/04/14 05:31:44;;;;;;;;;;;;;;;7.22;74.49;100402.25;1653328;85;20250;-74
2021/04/14 05:34:11;;;;;;;;;;;;;;;7.21;74.28;100398.78;1658268;85;22951;-74
2021/04/14 05:36:38;;;;;;;;;;;;;;;7.18;74.26;100399.84;1626712;85;20389;-75
2021/04/14 05:39:06;;;;;;;;;;;;;;;7.20;74.20;100398.89;1600274;88;20235;-75
2021/04/14 05:41:34;;;;;;;;;;;;;;;7.21;74.05;100399.26;1615625;87;20319;-75
2021/04/14 05:44:01;;;;;;;;;;;;;;;7.20;73.97;100394.48;1598395;89;20294;-74
2021/04/14 05:46:28;;;;;;;;;;;;;;;7.22;73.96;100391.27;1643688;86;22106;-75
2021/04/14 05:48:56;;;;;;;;;;;;;;;7.26;74.07;100395.41;1643537;87;20254;-75
2021/04/14 05:51:25;;;;;;;;;;;;;;;7.35;74.14;100382.98;1649614;87;20414;-75
2021/04/14 05:53:52;;;;;;;;;;;;;;;7.46;74.04;100380.48;1640865;86;20326;-75
2021/04/14 05:56:20;;;;;;;;;;;;;;;7.56;73.94;100379.39;1643833;87;20448;-74
2021/04/14 05:58:47;;;;;;;;;;;;;;;7.64;73.50;100381.52;1643790;87;22810;-75
2021/04/14 06:01:17;;;;;;;;;;;;;;;7.75;73.27;100386.41;1659091;86;20430;-75
2021/04/14 06:03:44;;;;;;;;;;;;;;;7.88;73.02;100382.47;1669027;86;20251;-74
2021/04/14 06:06:13;;;;;;;;;;;;;;;8.01;72.49;100381.19;1647148;86;20530;-74
2021/04/14 06:08:40;;;;;;;;;;;;;;;8.10;71.53;100379.20;1626936;86;20253;-74
2021/04/14 06:11:08;;;;;;;;;;;;;;;8.20;71.14;100381.59;1586823;90;22341;-74
2021/04/14 06:13:36;;;;;;;;;;;;;;;8.31;70.83;100378.22;1626609;86;20224;-75
2021/04/14 06:16:05;;;;;;;;;;;;;;;8.39;70.34;100378.52;1661966;86;20236;-74
2021/04/14 06:18:32;;;;;;;;;;;;;;;8.48;69.94;100378.36;1639710;87;20589;-74
2021/04/14 06:21:00;;;;;;;;;;;;;;;8.57;69.18;100375.08;1630002;88;20258;-74
2021/04/14 06:23:28;;;;;;;;;;;;;;;8.66;68.87;100377.05;1644124;86;22207;-74
2021/04/14 06:26:03;;;;;;;;;;;;;;;8.80;68.36;100375.61;1645607;86;20695;-74
2021/04/14 06:28:25;;;;;;;;;;;;;;;8.93;68.11;100372.08;1643708;87;20467;-74
2021/04/14 06:30:53;;;;;;;;;;;;;;;9.05;67.87;100370.70;1643604;87;20738;-74
2021/04/14 06:33:22;;;;;;;;;;;;;;;9.14;67.02;100371.34;1643693;87;20286;-74
2021/04/14 06:35:49;;;;;;;;;;;;;;;9.20;66.41;100366.12;1643756;86;22841;-75
2021/04/14 06:38:21;;;;;;;;;;;;;;;9.27;65.92;100367.83;1643647;86;20323;-75
2021/04/14 06:41:08;;;;;;;;;;;;;;;9.36;65.10;100367.12;1642870;86;20291;-77
2021/04/14 06:43:44;;;;;;;;;;;;;;;9.42;64.19;100365.36;1636697;86;20854;-76
2021/04/14 06:46:11;;;;;;;;;;;;;;;9.49;64.13;100359.16;1632754;86;20220;-75
2021/04/14 06:48:45;;;;;;;;;;;;;;;9.58;63.81;100356.67;1636289;86;22089;-74
2021/04/14 06:51:33;;;;;;;;;;;;;;;9.66;61.89;100369.28;1639680;86;20403;-75
2021/04/14 06:54:21;;;;;;;;;;;;;;;9.71;61.21;100368.44;1641826;86;20286;-76
2021/04/14 06:56:54;;;;;;;;;;;;;;;9.77;60.43;100355.27;1636132;86;20389;-75
2021/04/14 06:59:23;;;;;;;;;;;;;;;9.79;60.63;100360.78;1632769;86;20260;-77
2021/04/14 07:01:55;;;;;;;;;;;;;;;9.87;60.98;100362.84;1616170;87;22836;-77
2021/04/14 07:04:25;;;;;;;;;;;;;;;9.96;61.02;100360.82;1630514;86;20251;-76
2021/04/14 07:06:53;;;;;;;;;;;;;;;10.03;61.05;100359.36;1634421;86;20268;-76
2021/04/14 07:09:43;;;;;;;;;;;;;;;10.13;60.92;100358.17;1632873;87;20623;-76
2021/04/14 07:12:14;;;;;;;;;;;;;;;10.20;60.81;100360.22;1635721;87;20302;-76
2021/04/14 07:14:42;;;;;;;;;;;;;;;10.25;60.54;100355.47;1635879;86;22595;-75
2021/04/14 07:17:32;;;;;;;;;;;;;;;10.28;60.55;100355.22;1634794;86;20247;-73
2021/04/14 07:20:16;;;;;;;;;;;;;;;10.32;60.42;100356.64;1629233;86;20307;-74
2021/04/14 07:22:50;;;;;;;;;;;;;;;10.48;59.36;100355.45;1639457;86;21331;-74
2021/04/14 07:25:49;;;;;;;;;;;;;;;10.61;58.85;100356.14;1641428;86;20517;-75
2021/04/14 07:28:26;;;;;;;;;;;;;;;10.73;58.53;100356.98;1586396;87;21775;-73
2021/04/14 07:30:59;;;;;;;;;;;;;;;10.86;57.65;100358.50;1635609;87;20319;-73
2021/04/14 07:33:43;;;;;;;;;;;;;;;10.91;57.30;100350.22;1636130;87;20272;-73
2021/04/14 07:36:25;;;;;;;;;;;;;;;10.94;57.58;100353.92;1633797;86;20914;-73
2021/04/14 07:39:03;;;;;;;;;;;;;;;10.99;57.07;100349.09;1636468;86;20246;-82
2021/04/14 07:41:36;;;;;;;;;;;;;;;11.09;56.99;100346.53;1636201;86;22068;-79
2021/04/14 07:44:15;;;;;;;;;;;;;;;11.14;56.68;100337.76;1632093;86;21345;-77
2021/04/14 07:46:46;;;;;;;;;;;;;;;11.19;56.66;100328.95;1643373;87;20267;-78
2021/04/14 07:49:16;;;;;;;;;;;;;;;11.34;55.88;100332.98;1646657;86;21333;-79
2021/04/14 07:51:44;;;;;;;;;;;;;;;11.44;55.83;100333.89;1671148;86;20241;-78
2021/04/14 07:54:18;;;;;;;;;;;;;;;11.50;55.54;100327.27;1671192;84;21946;-86
2021/04/14 07:56:46;;;;;;;;;;;;;;;11.59;55.89;100325.66;1650885;85;20587;-81
2021/04/14 07:59:30;;;;;;;;;;;;;;;11.75;55.75;100319.39;1890220;76;20151;-80
2021/04/14 08:02:05;;;;;;;;;;;;;;;11.84;55.12;100320.45;1852764;77;20219;-81
2021/04/14 08:04:40;;;;;;;;;;;;;;;11.95;54.95;100317.72;1844385;77;22493;-84
2021/04/14 08:07:20;;;;;;;;;;;;;;;12.15;54.94;100317.31;1819384;79;20356;-80
2021/04/14 08:09:58;;;;;;;;;;;;;;;12.29;53.94;100313.00;1852640;77;20202;-83
2021/04/14 08:12:32;;;;;;;;;;;;;;;12.38;53.39;100308.22;1852471;77;20730;-80
2021/04/14 08:15:12;;;;;;;;;;;;;;;12.43;52.95;100302.50;1850828;77;20210;-79
2021/04/14 08:17:41;;;;;;;;;;;;;;;12.50;52.24;100300.51;1825553;77;23106;-79
2021/04/14 08:20:13;;;;;;;;;;;;;;;12.65;50.64;100299.64;1828684;77;20319;-83
2021/04/14 08:22:40;;;;;;;;;;;;;;;12.79;48.88;100299.23;1827932;77;20193;-79
2021/04/14 08:25:09;;;;;;;;;;;;;;;12.88;48.00;100286.97;1852900;77;20308;-78
2021/04/14 08:27:44;;;;;;;;;;;;;;;12.98;48.45;100290.95;1823274;77;20233;-84
2021/04/14 08:30:17;;;;;;;;;;;;;;;13.07;48.02;100280.83;1852416;77;22049;-85
2021/04/14 08:32:56;;;;;;;;;;;;;;;13.19;46.86;100282.39;1852367;77;20364;-84
2021/04/14 08:35:46;;;;;;;;;;;;;;;13.32;47.49;100282.11;1789158;79;20208;-77
2021/04/14 08:38:15;;;;;;;;;;;;;;;13.45;47.09;100264.91;1821994;77;20293;-84
2021/04/14 08:40:47;;;;;;;;;;;;;;;13.50;46.96;100263.63;1824699;78;20476;-83
2021/04/14 08:43:26;;;;;;;;;;;;;;;13.59;46.76;100260.95;1785915;79;22059;-80
2021/04/14 08:45:55;;;;;;;;;;;;;;;13.63;46.49;100266.34;1732750;81;20229;-76
2021/04/14 08:48:26;;;;;;;;;;;;;;;13.60;45.85;100261.30;1805169;79;20212;-76
2021/04/14 08:50:58;;;;;;;;;;;;;;;13.65;46.09;100252.42;1775531;81;20275;-84
2021/04/14 08:53:29;;;;;;;;;;;;;;;13.77;45.94;100253.56;1786380;79;20493;-82
2021/04/14 08:55:56;;;;;;;;;;;;;;;13.90;45.40;100244.80;1774609;80;23215;-79
2021/04/14 08:58:23;;;;;;;;;;;;;;;14.02;46.64;100240.97;1776080;81;20274;-82
2021/04/14 09:00:50;;;;;;;;;;;;;;;14.17;45.80;100231.51;1780572;79;20208;-78
2021/04/14 09:03:19;;;;;;;;;;;;;;;14.27;46.23;100230.95;1809641;79;20249;-77
2021/04/14 09:05:47;;;;;;;;;;;;;;;14.31;46.03;100233.67;1768925;81;20498;-77
2021/04/14 09:08:23;;;;;;;;;;;;;;;14.42;45.20;100241.09;1773262;80;22113;-79
2021/04/14 09:10:58;;;;;;;;;;;;;;;14.48;45.77;100236.06;1744930;82;20558;-78
2021/04/14 09:13:38;;;;;;;;;;;;;;;14.53;45.30;100220.97;1765973;79;20521;-77
2021/04/14 09:16:06;;;;;;;;;;;;;;;14.54;44.88;100227.95;1775734;79;21203;-78
2021/04/14 09:18:36;;;;;;;;;;;;;;;14.52;45.60;100218.81;1798096;79;20224;-82
2021/04/14 09:21:20;;;;;;;;;;;;;;;14.60;45.79;100217.56;1809324;79;20352;-78
2021/04/14 09:23:54;;;;;;;;;;;;;;;14.80;45.80;100214.27;1776783;79;20392;-77
2021/04/14 09:26:31;;;;;;;;;;;;;;;15.00;44.45;100211.43;1754829;82;20237;-79
2021/04/14 09:28:58;;;;;;;;;;;;;;;15.00;43.33;100203.45;1768884;80;20656;-81
2021/04/14 09:31:39;;;;;;;;;;;;;;;14.84;43.37;100205.47;1781889;80;20213;-79
2021/04/14 09:34:04;;;;;;;;;;;;;;;14.72;44.05;100210.19;1790231;80;21897;-79
2021/04/14 09:36:36;;;;;;;;;;;;;;;14.70;44.68;100216.66;1791938;80;20238;-78
2021/04/14 09:39:11;;;;;;;;;;;;;;;14.63;45.93;100213.77;1808914;79;20204;-77
2021/04/14 09:41:39;;;;;;;;;;;;;;;14.53;47.57;100221.81;1809354;79;20216;-77
2021/04/14 09:44:14;;;;;;;;;;;;;;;14.42;48.90;100215.84;1785011;80;20233;-76
2021/04/14 09:46:55;;;;;;;;;;;;;;;14.32;50.09;100210.59;1786869;80;22358;-77
2021/04/14 09:49:35;;;;;;;;;;;;;;;14.32;50.70;100206.13;1792135;80;20359;-77
2021/04/14 09:52:03;;;;;;;;;;;;;;;14.33;50.32;100202.97;1791902;79;20301;-76
2021/04/14 09:54:32;;;;;;;;;;;;;;;14.23;50.18;100201.70;1792058;80;20679;-76
2021/04/14 09:57:02;;;;;;;;;;;;;;;14.07;49.90;100197.52;1792067;80;20219;-76
2021/04/14 09:59:36;;;;;;;;;;;;;;;13.99;50.53;100200.08;1789360;79;22352;-76
2021/04/14 10:02:11;;;;;;;;;;;;;;;13.90;50.42;100201.00;1791654;80;20339;-77
2021/04/14 10:04:39;;;;;;;;;;;;;;;13.70;50.96;100203.73;1760905;81;20254;-76
2021/04/14 10:07:09;;;;;;;;;;;;;;;13.61;51.31;100199.30;1773957;80;20251;-76
2021/04/14 10:09:38;;;;;;;;;;;;;;;13.59;51.89;100197.26;1792120;80;20242;-75
2021/04/14 10:12:11;;;;;;;;;;;;;;;13.67;52.03;100192.55;1792125;80;21875;-75
2021/04/14 10:14:49;;;;;;;;;;;;;;;13.72;52.15;100202.26;1792153;80;20228;-76
2021/04/14 10:17:21;;;;;;;;;;;;;;;13.74;51.45;100193.66;1790149;80;20297;-76
2021/04/14 10:19:56;;;;;;;;;;;;;;;13.65;51.66;100198.02;1782673;80;20757;-77
2021/04/14 10:22:32;;;;;;;;;;;;;;;13.69;51.72;100195.40;1775533;79;20269;-77
2021/04/14 10:25:05;;;;;;;;;;;;;;;13.78;52.01;100193.69;1808011;79;22042;-77
2021/04/14 10:27:33;;;;;;;;;;;;;;;13.84;51.32;100187.80;1759261;81;20361;-77
2021/04/14 10:30:01;;;;;;;;;;;;;;;13.80;51.15;100192.21;1774237;81;20230;-77
2021/04/14 10:32:28;;;;;;;;;;;;;;;13.72;51.33;100196.45;1774369;81;20974;-75
2021/04/14 10:35:13;;;;;;;;;;;;;;;13.59;51.41;100194.61;1807759;79;20408;-74
2021/04/14 10:37:46;;;;;;;;;;;;;;;13.44;51.75;100192.09;1770638;81;21897;-75
2021/04/14 10:40:19;;;;;;;;;;;;;;;13.39;52.33;100190.34;1776501;80;20361;-75
2021/04/14 10:42:48;;;;;;;;;;;;;;;13.42;52.75;100188.75;1809039;79;20221;-75
2021/04/14 10:45:16;;;;;;;;;;;;;;;13.46;52.82;100191.45;1809129;79;20228;-76
2021/04/14 10:47:45;;;;;;;;;;;;;;;13.47;52.84;100186.48;1760451;81;20243;-75
2021/04/14 10:50:30;;;;;;;;;;;;;;;13.48;53.08;100181.52;1776827;80;22053;-76
2021/04/14 10:53:04;;;;;;;;;;;;;;;13.58;53.05;100179.67;1749875;80;20278;-75
2021/04/14 10:55:37;;;;;;;;;;;;;;;13.59;52.98;100180.01;1734042;80;20217;-76
2021/04/14 10:58:05;;;;;;;;;;;;;;;13.56;52.93;100173.67;1730719;82;20225;-75
2021/04/14 11:00:36;;;;;;;;;;;;;;;13.67;53.47;100173.48;1778870;80;20222;-76
2021/04/14 11:03:09;;;;;;;;;;;;;;;13.95;53.17;100171.67;1777932;80;20388;-76
2021/04/14 11:05:38;;;;;;;;;;;;;;;14.18;51.73;100159.30;1789252;80;21104;-76
2021/04/14 11:08:07;;;;;;;;;;;;;;;14.18;51.15;100167.27;1797444;79;20742;-76
2021/04/14 11:10:37;;;;;;;;;;;;;;;14.05;50.57;100164.98;1781839;80;20226;-75
2021/04/14 11:13:05;;;;;;;;;;;;;;;13.84;50.65;100164.41;1778491;80;20218;-75
2021/04/14 11:15:35;;;;;;;;;;;;;;;13.68;51.61;100159.23;1812255;79;22064;-78
2021/04/14 11:18:05;;;;;;;;;;;;;;;13.68;52.29;100163.20;1763895;80;21518;-77
2021/04/14 11:20:44;;;;;;;;;;;;;;;13.75;52.11;100159.48;1789941;79;20297;-80
2021/04/14 11:23:23;;;;;;;;;;;;;;;13.81;51.83;100152.77;1788848;80;20270;-79
2021/04/14 11:25:50;;;;;;;;;;;;;;;13.79;51.68;100149.39;1771607;81;20232;-77
2021/04/14 11:28:19;;;;;;;;;;;;;;;13.68;51.55;100146.45;1781282;80;22053;-81
2021/04/14 11:30:53;;;;;;;;;;;;;;;13.64;52.07;100145.09;1790411;80;20369;-83
2021/04/14 11:33:23;;;;;;;;;;;;;;;13.72;52.15;100148.68;1786602;80;20199;-79
2021/04/14 11:35:52;;;;;;;;;;;;;;;13.80;52.04;100143.10;1785835;80;20218;-78
2021/04/14 11:38:39;;;;;;;;;;;;;;;13.79;51.96;100142.27;1806112;79;20403;-79
2021/04/14 11:41:15;;;;;;;;;;;;;;;13.72;51.80;100142.54;1751133;81;20466;-79
2021/04/14 11:43:42;;;;;;;;;;;;;;;13.56;52.23;100144.98;1776541;80;21251;-79
2021/04/14 11:46:28;;;;;;;;;;;;;;;13.42;52.60;100141.00;1784706;80;20223;-78
2021/04/14 11:49:06;;;;;;;;;;;;;;;13.40;52.33;100136.30;1789829;80;20218;-78
2021/04/14 11:51:36;;;;;;;;;;;;;;;13.38;52.31;100132.48;1789422;80;20325;-75
2021/04/14 11:54:07;;;;;;;;;;;;;;;13.39;52.37;100131.49;1787615;80;22070;-79
2021/04/14 11:56:39;;;;;;;;;;;;;;;13.39;52.21;100131.98;1789923;79;20366;-77
2021/04/14 11:59:24;;;;;;;;;;;;;;;13.39;52.31;100126.19;1877209;76;20188;-76
2021/04/14 12:02:00;;;;;;;;;;;;;;;13.33;52.67;100127.28;1831813;77;20206;-78
2021/04/14 12:04:27;;;;;;;;;;;;;;;13.33;52.65;100118.83;1841309;77;22988;-75
2021/04/14 12:06:55;;;;;;;;;;;;;;;13.30;52.53;100118.27;1833898;77;20204;-74
2021/04/14 12:09:22;;;;;;;;;;;;;;;13.24;52.74;100120.19;1833031;77;20201;-78
2021/04/14 12:12:05;;;;;;;;;;;;;;;13.20;52.78;100116.14;1844392;77;20476;-80
2021/04/14 12:14:34;;;;;;;;;;;;;;;13.15;52.77;100124.52;1820771;77;20209;-81
2021/04/14 12:17:03;;;;;;;;;;;;;;;13.08;52.67;100126.06;1833597;77;22055;-78
2021/04/14 12:19:32;;;;;;;;;;;;;;;13.02;52.82;100130.11;1832245;77;20746;-78
2021/04/14 12:22:00;;;;;;;;;;;;;;;13.03;53.18;100125.67;1833885;77;20221;-77
2021/04/14 12:24:28;;;;;;;;;;;;;;;13.04;53.27;100121.55;1822236;77;20937;-78
2021/04/14 12:26:58;;;;;;;;;;;;;;;13.03;53.05;100121.70;1819371;79;20215;-87
2021/04/14 12:29:25;;;;;;;;;;;;;;;12.97;53.21;100119.12;1819810;79;21871;-81
2021/04/14 12:31:54;;;;;;;;;;;;;;;12.98;53.52;100118.13;1820720;77;20327;-82
2021/04/14 12:34:23;;;;;;;;;;;;;;;13.03;53.64;100118.55;1852550;77;20217;-79
2021/04/14 12:36:51;;;;;;;;;;;;;;;13.08;53.07;100116.78;1850934;77;20269;-77
2021/04/14 12:39:18;;;;;;;;;;;;;;;13.08;52.77;100113.64;1850122;77;20225;-75
2021/04/14 12:41:47;;;;;;;;;;;;;;;13.06;52.82;100123.56;1850920;77;22134;-81
2021/04/14 12:44:15;;;;;;;;;;;;;;;13.08;52.71;100115.45;1848493;77;20316;-84
2021/04/14 12:46:44;;;;;;;;;;;;;;;13.09;52.34;100116.63;1820345;79;20216;-84
2021/04/14 12:49:14;;;;;;;;;;;;;;;13.07;52.28;100111.97;1817214;79;20690;-84
2021/04/14 12:51:50;;;;;;;;;;;;;;;13.05;52.21;100108.63;1820564;79;20310;-85
2021/04/14 12:54:30;;;;;;;;;;;;;;;13.06;52.08;100112.95;1821502;77;22139;-84
2021/04/14 12:57:11;;;;;;;;;;;;;;;13.09;52.00;100110.00;1836123;77;20651;-79
2021/04/14 12:59:47;;;;;;;;;;;;;;;13.08;52.07;100108.83;1846099;77;20212;-82